createdAt,value
2023-02-16T00:00:44.976Z,-0.28
2023-02-16T00:03:11.354Z,-0.28
2023-02-16T00:05:37.630Z,-0.36
2023-02-16T00:08:04.103Z,-0.37
2023-02-16T00:10:30.435Z,-0.36
2023-02-16T00:12:56.807Z,-0.34
2023-02-16T00:15:23.217Z,-0.42
2023-02-16T00:17:49.565Z,-0.57
2023-02-16T00:20:15.903Z,-0.64
2023-02-16T00:22:42.231Z,-0.62
2023-02-16T00:25:08.577Z,-0.66
2023-02-16T00:27:34.895Z,-0.63
2023-02-16T00:30:01.296Z,-0.74
2023-02-16T00:32:27.631Z,-0.81
2023-02-16T00:34:54.028Z,-0.90
2023-02-16T00:37:20.376Z,-0.87
2023-02-16T00:39:46.744Z,-0.69
2023-02-16T00:42:15.509Z,-0.60
2023-02-16T00:44:41.848Z,-0.59
2023-02-16T00:47:08.179Z,-0.47
2023-02-16T00:49:34.563Z,-0.45
2023-02-16T00:52:00.916Z,-0.56
2023-02-16T00:54:27.265Z,-0.65
2023-02-16T00:56:53.572Z,-0.54
2023-02-16T00:59:19.996Z,-0.45
2023-02-16T01:01:46.378Z,-0.40
2023-02-16T01:04:12.708Z,-0.52
2023-02-16T01:06:39.048Z,-0.53
2023-02-16T01:09:05.417Z,-0.51
2023-02-16T01:11:31.731Z,-0.57
2023-02-16T01:13:58.117Z,-0.60
2023-02-16T01:16:24.440Z,-0.71
2023-02-16T01:18:50.820Z,-0.73
2023-02-16T01:21:17.149Z,-0.71
2023-02-16T01:23:43.525Z,-0.65
2023-02-16T01:26:09.845Z,-0.56
2023-02-16T01:28:36.265Z,-0.54
2023-02-16T01:31:03.014Z,-0.48
2023-02-16T01:33:28.975Z,-0.53
2023-02-16T01:35:55.275Z,-0.53
2023-02-16T01:38:21.643Z,-0.68
2023-02-16T01:40:48.013Z,-0.73
2023-02-16T01:43:14.358Z,-0.75
2023-02-16T01:45:40.717Z,-0.77
2023-02-16T01:48:07.077Z,-0.85
2023-02-16T01:50:33.484Z,-1.01
2023-02-16T01:52:59.821Z,-1.03
2023-02-16T01:55:26.192Z,-1.02
2023-02-16T01:57:52.518Z,-1.08
2023-02-16T02:00:18.886Z,-1.13
2023-02-16T02:02:45.330Z,-1.17
2023-02-16T02:05:11.656Z,-1.20
2023-02-16T02:07:38.037Z,-1.25
2023-02-16T02:10:04.377Z,-1.26
2023-02-16T02:12:30.752Z,-1.31
2023-02-16T02:14:57.072Z,-1.32
2023-02-16T02:17:23.454Z,-1.32
2023-02-16T02:19:50.116Z,-1.34
2023-02-16T02:22:16.461Z,-1.38
2023-02-16T02:24:42.814Z,-1.38
2023-02-16T02:27:09.200Z,-1.30
2023-02-16T02:29:35.566Z,-1.25
2023-02-16T02:32:01.988Z,-1.28
2023-02-16T02:34:28.303Z,-1.28
2023-02-16T02:36:54.681Z,-1.31
2023-02-16T02:39:21.039Z,-1.36
2023-02-16T02:41:47.424Z,-1.40
2023-02-16T02:44:13.777Z,-1.37
2023-02-16T02:46:40.259Z,-1.35
2023-02-16T02:49:06.565Z,-1.37
2023-02-16T02:51:32.951Z,-1.35
2023-02-16T02:53:59.265Z,-1.40
2023-02-16T02:56:25.646Z,-1.42
2023-02-16T02:58:51.973Z,-1.44
2023-02-16T03:01:18.365Z,-1.56
2023-02-16T03:03:44.704Z,-1.56
2023-02-16T03:06:11.090Z,-1.60
2023-02-16T03:08:37.446Z,-1.62
2023-02-16T03:11:04.190Z,-1.64
2023-02-16T03:13:30.153Z,-1.63
2023-02-16T03:15:56.558Z,-1.68
2023-02-16T03:18:22.840Z,-1.67
2023-02-16T03:20:49.171Z,-1.67
2023-02-16T03:23:15.487Z,-1.64
2023-02-16T03:25:41.835Z,-1.67
2023-02-16T03:28:08.190Z,-1.74
2023-02-16T03:30:34.647Z,-1.72
2023-02-16T03:33:00.854Z,-1.74
2023-02-16T03:35:27.198Z,-1.67
2023-02-16T03:37:53.597Z,-1.72
2023-02-16T03:40:19.975Z,-1.74
2023-02-16T03:42:46.327Z,-1.77
2023-02-16T03:45:12.753Z,-1.79
2023-02-16T03:47:39.107Z,-1.84
2023-02-16T03:50:05.500Z,-1.87
2023-02-16T03:52:31.862Z,-1.84
2023-02-16T03:54:58.239Z,-1.92
2023-02-16T03:57:24.553Z,-1.94
2023-02-16T03:59:50.949Z,-2.01
2023-02-16T04:02:17.428Z,-2.04
2023-02-16T04:04:43.678Z,-2.10
2023-02-16T04:07:10.571Z,-2.15
2023-02-16T04:09:36.923Z,-2.12
2023-02-16T04:12:03.558Z,-2.06
2023-02-16T04:14:29.891Z,-2.03
2023-02-16T04:16:56.252Z,-2.07
2023-02-16T04:19:22.601Z,-2.14
2023-02-16T04:21:48.967Z,-2.15
2023-02-16T04:24:15.622Z,-2.21
2023-02-16T04:26:41.936Z,-2.26
2023-02-16T04:29:08.334Z,-2.39
2023-02-16T04:31:34.826Z,-2.51
2023-02-16T04:34:01.081Z,-2.56
2023-02-16T04:36:27.424Z,-2.70
2023-02-16T04:38:53.738Z,-2.69
2023-02-16T04:41:20.126Z,-2.72
2023-02-16T04:43:46.473Z,-2.78
2023-02-16T04:46:12.859Z,-2.84
2023-02-16T04:48:39.181Z,-2.84
2023-02-16T04:51:05.939Z,-2.78
2023-02-16T04:53:31.906Z,-2.77
2023-02-16T04:55:58.374Z,-2.81
2023-02-16T04:58:24.730Z,-2.87
2023-02-16T05:00:51.153Z,-2.93
2023-02-16T05:03:17.494Z,-2.93
2023-02-16T05:05:43.911Z,-2.93
2023-02-16T05:08:10.273Z,-2.85
2023-02-16T05:10:36.634Z,-2.75
2023-02-16T05:13:03.198Z,-2.58
2023-02-16T05:15:29.566Z,-2.50
2023-02-16T05:17:55.829Z,-2.46
2023-02-16T05:20:22.219Z,-2.34
2023-02-16T05:22:48.534Z,-2.35
2023-02-16T05:25:15.012Z,-2.38
2023-02-16T05:27:41.509Z,-2.48
2023-02-16T05:30:07.856Z,-2.52
2023-02-16T05:32:34.173Z,-2.45
2023-02-16T05:35:00.685Z,-2.32
2023-02-16T05:37:27.062Z,-2.17
2023-02-16T05:39:53.402Z,-2.02
2023-02-16T05:42:19.855Z,-1.82
2023-02-16T05:44:46.229Z,-1.60
2023-02-16T05:47:12.607Z,-1.36
2023-02-16T05:49:38.958Z,-1.30
2023-02-16T05:52:05.320Z,-1.15
2023-02-16T05:54:31.788Z,-0.91
2023-02-16T05:56:58.104Z,-0.72
2023-02-16T05:59:24.467Z,-0.74
2023-02-16T06:01:52.343Z,-0.61
2023-02-16T06:04:17.192Z,-0.52
2023-02-16T06:06:45.765Z,-0.31
2023-02-16T06:09:12.124Z,-0.15
2023-02-16T06:11:38.477Z,0.00
2023-02-16T06:14:04.886Z,0.16
2023-02-16T06:16:31.220Z,0.33
2023-02-16T06:18:57.798Z,0.54
2023-02-16T06:21:24.200Z,0.41
2023-02-16T06:23:50.542Z,0.51
2023-02-16T06:26:16.924Z,0.40
2023-02-16T06:28:43.246Z,0.35
2023-02-16T06:31:09.703Z,0.36
2023-02-16T06:33:36.086Z,0.45
2023-02-16T06:36:02.466Z,0.59
2023-02-16T06:38:28.809Z,0.62
2023-02-16T06:40:55.218Z,0.46
2023-02-16T06:43:21.603Z,0.34
2023-02-16T06:45:47.917Z,0.49
2023-02-16T06:48:14.565Z,0.68
2023-02-16T06:50:40.930Z,0.84
2023-02-16T06:53:07.269Z,0.80
2023-02-16T06:55:33.679Z,0.83
2023-02-16T06:58:00.044Z,0.92
2023-02-16T07:00:26.484Z,1.09
2023-02-16T07:02:52.811Z,1.12
2023-02-16T07:05:19.114Z,1.42
2023-02-16T07:07:45.498Z,1.59
2023-02-16T07:10:11.834Z,1.37
2023-02-16T07:12:38.249Z,1.76
2023-02-16T07:15:04.609Z,2.41
2023-02-16T07:17:31.007Z,2.74
2023-02-16T07:19:59.899Z,3.05
2023-02-16T07:22:24.250Z,3.14
2023-02-16T07:24:50.605Z,3.54
2023-02-16T07:27:16.945Z,3.88
2023-02-16T07:29:44.280Z,3.93
2023-02-16T07:32:10.751Z,3.75
2023-02-16T07:34:37.235Z,3.76
2023-02-16T07:37:04.764Z,3.64
2023-02-16T07:39:31.117Z,3.60
2023-02-16T07:41:57.470Z,3.57
2023-02-16T07:44:23.785Z,4.09
2023-02-16T07:46:50.247Z,4.27
2023-02-16T07:49:16.623Z,4.23
2023-02-16T07:51:43.017Z,4.30
2023-02-16T07:54:09.393Z,4.23
2023-02-16T07:56:35.739Z,4.64
2023-02-16T07:59:02.543Z,4.81
2023-02-16T08:01:28.929Z,4.91
2023-02-16T08:03:57.412Z,5.54
2023-02-16T08:06:23.751Z,6.26
2023-02-16T08:08:50.080Z,6.40
2023-02-16T08:11:16.482Z,6.28
2023-02-16T08:13:42.776Z,6.23
2023-02-16T08:16:09.202Z,6.79
2023-02-16T08:18:35.517Z,6.88
2023-02-16T08:21:04.519Z,6.57
2023-02-16T08:23:28.310Z,7.33
2023-02-16T08:25:54.684Z,7.88
2023-02-16T08:28:21.045Z,7.57
2023-02-16T08:30:47.493Z,6.90
2023-02-16T08:33:13.807Z,6.39
2023-02-16T08:35:40.145Z,6.52
2023-02-16T08:38:06.561Z,6.99
2023-02-16T08:40:33.198Z,7.14
2023-02-16T08:42:59.513Z,7.28
2023-02-16T08:45:25.964Z,7.41
2023-02-16T08:47:52.317Z,7.17
2023-02-16T08:50:18.657Z,7.54
2023-02-16T08:52:45.027Z,7.80
2023-02-16T08:55:11.470Z,7.84
2023-02-16T08:57:37.876Z,7.18
2023-02-16T09:00:04.175Z,7.70
2023-02-16T09:02:30.615Z,7.94
2023-02-16T09:04:56.965Z,8.31
2023-02-16T09:07:23.337Z,8.73
2023-02-16T09:09:49.796Z,8.67
2023-02-16T09:12:16.118Z,8.50
2023-02-16T09:14:42.449Z,8.63
2023-02-16T09:17:08.835Z,8.81
2023-02-16T09:19:35.128Z,9.19
2023-02-16T09:22:01.495Z,9.70
2023-02-16T09:24:27.879Z,10.23
2023-02-16T09:26:54.198Z,10.31
2023-02-16T09:29:20.646Z,10.68
2023-02-16T09:31:47.214Z,10.96
2023-02-16T09:34:13.594Z,10.87
2023-02-16T09:36:39.952Z,10.51
2023-02-16T09:39:06.395Z,10.29
2023-02-16T09:41:32.710Z,10.61
2023-02-16T09:43:59.121Z,11.02
2023-02-16T09:46:25.605Z,10.84
2023-02-16T09:48:51.943Z,10.50
2023-02-16T09:51:18.928Z,10.74
2023-02-16T09:53:45.496Z,11.14
2023-02-16T09:56:11.852Z,10.98
2023-02-16T09:58:38.280Z,11.15
2023-02-16T10:01:04.576Z,11.17
2023-02-16T10:03:30.949Z,11.20
2023-02-16T10:05:57.268Z,11.64
2023-02-16T10:08:23.614Z,11.54
2023-02-16T10:10:49.939Z,11.29
2023-02-16T10:13:16.399Z,11.51
2023-02-16T10:15:42.781Z,11.60
2023-02-16T10:18:09.123Z,11.94
2023-02-16T10:20:35.774Z,12.28
2023-02-16T10:23:02.164Z,12.65
2023-02-16T10:25:28.490Z,12.94
2023-02-16T10:27:54.886Z,12.58
2023-02-16T10:30:21.522Z,12.43
2023-02-16T10:32:47.582Z,12.23
2023-02-16T10:35:14.015Z,11.78
2023-02-16T10:37:40.489Z,12.69
2023-02-16T10:40:06.844Z,12.58
2023-02-16T10:42:33.238Z,12.40
2023-02-16T10:44:59.590Z,12.51
2023-02-16T10:47:26.099Z,12.85
2023-02-16T10:49:52.420Z,13.11
2023-02-16T10:52:18.817Z,13.33
2023-02-16T10:54:45.176Z,12.94
2023-02-16T10:57:11.595Z,13.08
2023-02-16T10:59:37.956Z,13.44
2023-02-16T11:02:04.325Z,13.55
2023-02-16T11:04:30.793Z,13.65
2023-02-16T11:06:57.099Z,13.29
2023-02-16T11:09:23.429Z,13.83
2023-02-16T11:11:50.154Z,13.71
2023-02-16T11:14:16.504Z,14.15
2023-02-16T11:16:42.897Z,14.00
2023-02-16T11:19:09.230Z,14.38
2023-02-16T11:21:35.645Z,14.30
2023-02-16T11:24:02.000Z,14.40
2023-02-16T11:26:28.329Z,14.59
2023-02-16T11:28:54.668Z,14.63
2023-02-16T11:31:21.136Z,14.57
2023-02-16T11:33:47.411Z,14.51
2023-02-16T11:36:13.788Z,14.76
2023-02-16T11:38:40.109Z,14.81
2023-02-16T11:41:06.932Z,14.03
2023-02-16T11:43:32.920Z,14.10
2023-02-16T11:45:59.258Z,14.41
2023-02-16T11:48:25.580Z,14.72
2023-02-16T11:50:53.674Z,14.86
2023-02-16T11:53:18.363Z,14.83
2023-02-16T11:55:44.750Z,14.95
2023-02-16T11:58:11.069Z,14.38
2023-02-16T12:00:37.491Z,13.99
2023-02-16T12:03:04.002Z,14.08
2023-02-16T12:05:30.431Z,14.09
2023-02-16T12:07:56.841Z,14.74
2023-02-16T12:10:23.195Z,15.03
2023-02-16T12:12:49.527Z,15.00
2023-02-16T12:15:15.993Z,15.26
2023-02-16T12:17:42.310Z,14.99
2023-02-16T12:20:08.725Z,15.32
2023-02-16T12:22:35.333Z,15.59
2023-02-16T12:25:01.725Z,15.90
2023-02-16T12:27:28.046Z,15.61
2023-02-16T12:29:54.533Z,15.54
2023-02-16T12:32:20.835Z,15.84
2023-02-16T12:34:48.749Z,16.04
2023-02-16T12:37:13.608Z,16.40
2023-02-16T12:39:39.946Z,16.18
2023-02-16T12:42:06.317Z,16.11
2023-02-16T12:44:32.726Z,15.92
2023-02-16T12:46:59.085Z,15.86
2023-02-16T12:49:25.446Z,16.03
2023-02-16T12:51:51.798Z,15.80
2023-02-16T12:54:18.178Z,16.18
2023-02-16T12:56:44.531Z,16.53
2023-02-16T12:59:10.906Z,16.66
2023-02-16T13:01:37.460Z,16.62
2023-02-16T13:04:03.811Z,16.91
2023-02-16T13:06:30.250Z,16.78
2023-02-16T13:08:56.646Z,16.80
2023-02-16T13:11:22.985Z,16.26
2023-02-16T13:13:49.413Z,16.36
2023-02-16T13:16:28.938Z,16.16
2023-02-16T13:18:42.277Z,16.33
2023-02-16T13:21:08.665Z,16.00
2023-02-16T13:23:35.002Z,16.45
2023-02-16T13:26:01.600Z,16.54
2023-02-16T13:28:28.012Z,16.47
2023-02-16T13:30:54.543Z,16.34
2023-02-16T13:33:20.648Z,16.31
2023-02-16T13:35:46.975Z,16.45
2023-02-16T13:38:13.370Z,16.77
2023-02-16T13:40:39.806Z,16.91
2023-02-16T13:43:06.206Z,16.43
2023-02-16T13:45:32.662Z,16.59
2023-02-16T13:47:59.384Z,16.36
2023-02-16T13:50:25.764Z,15.53
2023-02-16T13:52:52.092Z,15.37
2023-02-16T13:55:18.456Z,14.76
2023-02-16T13:57:50.151Z,14.75
2023-02-16T14:00:11.171Z,14.53
2023-02-16T14:02:37.578Z,14.23
2023-02-16T14:05:03.911Z,13.82
2023-02-16T14:07:30.260Z,13.89
2023-02-16T14:09:56.645Z,13.70
2023-02-16T14:12:23.473Z,13.69
2023-02-16T14:14:50.874Z,13.81
2023-02-16T14:17:16.172Z,13.74
2023-02-16T14:19:42.503Z,13.80
2023-02-16T14:22:08.885Z,13.60
2023-02-16T14:24:35.210Z,13.53
2023-02-16T14:27:01.758Z,13.50
2023-02-16T14:29:28.135Z,13.57
2023-02-16T14:31:54.557Z,13.41
2023-02-16T14:34:20.849Z,13.36
2023-02-16T14:36:47.211Z,13.25
2023-02-16T14:39:13.574Z,13.06
2023-02-16T14:41:39.920Z,13.03
2023-02-16T14:44:06.314Z,12.96
2023-02-16T14:46:33.092Z,12.95
2023-02-16T14:49:01.684Z,12.97
2023-02-16T14:51:28.078Z,12.88
2023-02-16T14:53:54.453Z,12.77
2023-02-16T14:56:20.789Z,12.70
2023-02-16T14:58:47.212Z,12.65
2023-02-16T15:01:13.637Z,12.61
2023-02-16T15:03:40.351Z,12.65
2023-02-16T15:06:06.831Z,12.66
2023-02-16T15:08:32.740Z,12.64
2023-02-16T15:10:59.062Z,12.57
2023-02-16T15:13:25.417Z,12.57
2023-02-16T15:15:51.859Z,12.57
2023-02-16T15:18:18.244Z,12.51
2023-02-16T15:20:44.555Z,12.39
2023-02-16T15:23:10.952Z,12.25
2023-02-16T15:25:37.499Z,12.21
2023-02-16T15:28:03.826Z,12.17
2023-02-16T15:30:30.263Z,12.11
2023-02-16T15:32:56.751Z,12.03
2023-02-16T15:35:23.061Z,11.99
2023-02-16T15:37:49.450Z,12.00
2023-02-16T15:40:25.844Z,11.96
2023-02-16T15:42:43.253Z,11.90
2023-02-16T15:45:09.735Z,11.89
2023-02-16T15:47:36.083Z,11.83
2023-02-16T15:50:02.564Z,11.79
2023-02-16T15:52:28.945Z,11.71
2023-02-16T15:54:55.256Z,11.61
2023-02-16T15:57:21.915Z,11.51
2023-02-16T15:59:48.240Z,11.43
2023-02-16T16:02:14.670Z,11.32
2023-02-16T16:04:41.048Z,11.21
2023-02-16T16:07:07.351Z,11.11
2023-02-16T16:09:33.672Z,11.04
2023-02-16T16:12:00.108Z,10.95
2023-02-16T16:14:26.418Z,10.88
2023-02-16T16:16:53.236Z,10.85
2023-02-16T16:19:19.579Z,10.80
2023-02-16T16:21:45.957Z,10.75
2023-02-16T16:24:12.373Z,10.69
2023-02-16T16:26:38.817Z,10.56
2023-02-16T16:29:05.076Z,10.47
2023-02-16T16:31:31.529Z,10.40
2023-02-16T16:33:57.790Z,10.27
2023-02-16T16:36:24.183Z,10.20
2023-02-16T16:38:50.529Z,10.12
2023-02-16T16:41:16.918Z,10.00
2023-02-16T16:43:43.362Z,9.96
2023-02-16T16:46:09.758Z,9.88
2023-02-16T16:48:36.090Z,9.83
2023-02-16T16:51:02.644Z,9.77
2023-02-16T16:53:28.873Z,9.72
2023-02-16T16:55:55.208Z,9.72
2023-02-16T16:58:21.558Z,9.71
2023-02-16T17:00:48.168Z,9.64
2023-02-16T17:03:14.646Z,9.57
2023-02-16T17:05:41.073Z,9.51
2023-02-16T17:08:07.363Z,9.38
2023-02-16T17:10:33.782Z,9.25
2023-02-16T17:13:00.130Z,9.13
2023-02-16T17:15:26.553Z,8.91
2023-02-16T17:17:52.862Z,8.83
2023-02-16T17:20:19.213Z,8.76
2023-02-16T17:22:45.545Z,8.75
2023-02-16T17:25:11.920Z,8.53
2023-02-16T17:27:38.307Z,8.32
2023-02-16T17:30:04.692Z,8.23
2023-02-16T17:32:31.081Z,8.13
2023-02-16T17:34:57.434Z,8.08
2023-02-16T17:37:23.798Z,8.19
2023-02-16T17:39:50.162Z,8.22
2023-02-16T17:42:16.530Z,8.35
2023-02-16T17:44:42.894Z,8.32
2023-02-16T17:47:09.456Z,8.28
2023-02-16T17:49:35.841Z,8.18
2023-02-16T17:52:02.162Z,8.00
2023-02-16T17:54:28.551Z,7.91
2023-02-16T17:56:55.110Z,7.82
2023-02-16T17:59:21.509Z,7.65
2023-02-16T18:01:47.887Z,7.43
2023-02-16T18:04:14.276Z,7.29
2023-02-16T18:06:40.556Z,7.29
2023-02-16T18:09:06.947Z,7.09
2023-02-16T18:11:33.291Z,7.08
2023-02-16T18:13:59.680Z,7.05
2023-02-16T18:16:26.080Z,6.95
2023-02-16T18:18:52.473Z,6.78
2023-02-16T18:21:18.785Z,6.74
2023-02-16T18:23:45.128Z,6.70
2023-02-16T18:26:11.540Z,6.49
2023-02-16T18:28:37.856Z,6.37
2023-02-16T18:31:05.445Z,6.45
2023-02-16T18:33:31.828Z,6.47
2023-02-16T18:35:58.465Z,6.53
2023-02-16T18:38:24.850Z,6.48
2023-02-16T18:40:51.438Z,6.50
2023-02-16T18:43:17.843Z,6.47
2023-02-16T18:45:44.199Z,6.45
2023-02-16T18:48:10.564Z,6.44
2023-02-16T18:50:36.928Z,6.27
2023-02-16T18:53:03.303Z,6.09
2023-02-16T18:55:29.894Z,6.09
2023-02-16T18:57:56.292Z,6.11
2023-02-16T19:00:22.668Z,5.93
2023-02-16T19:02:49.011Z,5.88
2023-02-16T19:05:15.330Z,5.62
2023-02-16T19:07:41.717Z,5.46
2023-02-16T19:10:08.086Z,5.52
2023-02-16T19:12:34.602Z,5.75
2023-02-16T19:15:01.218Z,5.80
2023-02-16T19:17:27.597Z,5.86
2023-02-16T19:19:53.906Z,5.89
2023-02-16T19:22:20.326Z,5.85
2023-02-16T19:24:46.877Z,5.80
2023-02-16T19:27:13.203Z,5.33
2023-02-16T19:29:39.596Z,5.22
2023-02-16T19:32:07.134Z,5.24
2023-02-16T19:34:33.648Z,5.29
2023-02-16T19:37:00.160Z,5.33
2023-02-16T19:39:26.517Z,5.34
2023-02-16T19:41:52.898Z,5.22
2023-02-16T19:44:19.211Z,5.14
2023-02-16T19:46:45.550Z,5.11
2023-02-16T19:49:11.914Z,5.06
2023-02-16T19:51:38.252Z,4.99
2023-02-16T19:54:04.623Z,4.90
2023-02-16T19:56:31.071Z,4.81
2023-02-16T19:58:57.442Z,4.80
2023-02-16T20:01:23.889Z,4.87
2023-02-16T20:03:50.186Z,4.78
2023-02-16T20:06:16.566Z,4.82
2023-02-16T20:08:42.879Z,4.91
2023-02-16T20:11:09.265Z,4.82
2023-02-16T20:13:35.609Z,4.73
2023-02-16T20:16:02.000Z,4.68
2023-02-16T20:18:28.271Z,4.60
2023-02-16T20:20:54.693Z,4.53
2023-02-16T20:23:21.055Z,4.57
2023-02-16T20:25:47.427Z,4.53
2023-02-16T20:28:14.052Z,4.49
2023-02-16T20:30:40.733Z,4.43
2023-02-16T20:33:07.098Z,4.36
2023-02-16T20:35:33.780Z,4.22
2023-02-16T20:38:00.142Z,4.14
2023-02-16T20:40:27.977Z,4.04
2023-02-16T20:42:54.441Z,3.95
2023-02-16T20:45:20.835Z,4.01
2023-02-16T20:47:47.204Z,3.92
2023-02-16T20:50:13.759Z,3.89
2023-02-16T20:52:40.138Z,3.90
2023-02-16T20:55:06.521Z,3.89
2023-02-16T20:57:32.873Z,3.81
2023-02-16T20:59:59.256Z,3.79
2023-02-16T21:02:25.722Z,3.82
2023-02-16T21:04:51.947Z,3.88
2023-02-16T21:07:18.361Z,3.94
2023-02-16T21:09:44.983Z,3.98
2023-02-16T21:12:11.306Z,3.93
2023-02-16T21:14:40.050Z,3.90
2023-02-16T21:17:06.645Z,3.91
2023-02-16T21:19:33.046Z,3.96
2023-02-16T21:21:59.399Z,4.02
2023-02-16T21:24:25.737Z,3.98
2023-02-16T21:26:52.067Z,3.93
2023-02-16T21:29:18.469Z,3.98
2023-02-16T21:31:45.046Z,3.93
2023-02-16T21:34:11.317Z,3.82
2023-02-16T21:36:37.663Z,3.54
2023-02-16T21:39:04.002Z,3.45
2023-02-16T21:41:30.329Z,3.41
2023-02-16T21:43:56.665Z,3.26
2023-02-16T21:46:23.040Z,3.07
2023-02-16T21:48:49.405Z,2.86
2023-02-16T21:51:15.762Z,2.61
2023-02-16T21:53:42.175Z,2.68
2023-02-16T21:56:08.633Z,2.79
2023-02-16T21:58:34.866Z,2.62
2023-02-16T22:01:01.396Z,2.59
2023-02-16T22:03:27.696Z,2.62
2023-02-16T22:05:54.057Z,2.63
2023-02-16T22:08:20.389Z,2.78
2023-02-16T22:10:46.831Z,2.67
2023-02-16T22:13:13.286Z,2.68
2023-02-16T22:15:39.603Z,2.71
2023-02-16T22:18:05.995Z,2.75
2023-02-16T22:20:32.353Z,2.78
2023-02-16T22:22:58.709Z,2.78
2023-02-16T22:25:25.065Z,2.85
2023-02-16T22:27:51.407Z,2.84
2023-02-16T22:30:17.752Z,2.87
2023-02-16T22:32:44.122Z,2.81
2023-02-16T22:35:10.434Z,2.86
2023-02-16T22:37:36.832Z,2.79
2023-02-16T22:40:03.185Z,2.69
2023-02-16T22:42:29.560Z,2.61
2023-02-16T22:44:56.093Z,2.60
2023-02-16T22:47:22.447Z,2.50
2023-02-16T22:49:48.809Z,2.42
2023-02-16T22:52:15.192Z,2.46
2023-02-16T22:54:41.575Z,2.47
2023-02-16T22:57:07.949Z,2.49
2023-02-16T22:59:34.272Z,2.48
2023-02-16T23:02:00.626Z,2.42
2023-02-16T23:04:27.012Z,2.38
2023-02-16T23:06:53.369Z,2.39
2023-02-16T23:09:19.718Z,2.44
2023-02-16T23:11:46.136Z,2.47
2023-02-16T23:14:12.457Z,2.43
2023-02-16T23:16:38.895Z,2.32
2023-02-16T23:19:05.233Z,2.27
2023-02-16T23:21:31.627Z,2.26
2023-02-16T23:23:58.002Z,2.22
2023-02-16T23:26:24.388Z,2.18
2023-02-16T23:28:50.748Z,2.11
2023-02-16T23:31:17.271Z,2.03
2023-02-16T23:33:43.449Z,2.03
2023-02-16T23:36:09.795Z,1.98
2023-02-16T23:38:36.130Z,1.89
2023-02-16T23:41:02.801Z,1.85
2023-02-16T23:43:29.210Z,1.83
2023-02-16T23:45:55.621Z,1.86
2023-02-16T23:48:21.896Z,1.76
2023-02-16T23:50:48.336Z,1.69
2023-02-16T23:53:14.681Z,1.65
2023-02-16T23:55:41.097Z,1.69
2023-02-16T23:58:07.444Z,1.76
